createdAt,value
2019-05-09T00:01:43.961Z,8.63
2019-05-09T00:04:14.038Z,8.83
2019-05-09T00:06:43.585Z,9.10
2019-05-09T00:09:13.910Z,9.73
2019-05-09T00:11:44.035Z,8.83
2019-05-09T00:14:13.757Z,8.70
2019-05-09T00:16:43.915Z,8.50
2019-05-09T00:19:13.681Z,8.33
2019-05-09T00:21:47.725Z,8.30
2019-05-09T00:24:17.127Z,8.13
2019-05-09T00:26:46.364Z,7.50
2019-05-09T00:29:33.484Z,8.20
2019-05-09T00:32:23.973Z,8.30
2019-05-09T00:34:54.946Z,8.00
2019-05-09T00:37:25.955Z,8.20
2019-05-09T00:39:55.311Z,7.80
2019-05-09T00:42:24.590Z,9.10
2019-05-09T00:44:55.511Z,8.07
2019-05-09T00:47:26.527Z,8.23
2019-05-09T00:49:55.855Z,8.30
2019-05-09T00:52:25.202Z,7.37
2019-05-09T00:54:54.572Z,8.60
2019-05-09T00:57:38.336Z,8.37
2019-05-09T01:00:14.532Z,7.90
2019-05-09T01:02:43.510Z,8.60
2019-05-09T01:05:13.840Z,8.50
2019-05-09T01:07:43.202Z,8.80
2019-05-09T01:10:14.478Z,8.30
2019-05-09T01:12:43.879Z,8.10
2019-05-09T01:15:13.858Z,8.20
2019-05-09T01:17:44.165Z,8.23
2019-05-09T01:20:14.770Z,8.13
2019-05-09T01:22:44.199Z,8.20
2019-05-09T01:25:13.764Z,8.13
2019-05-09T01:27:43.285Z,8.00
2019-05-09T01:30:13.562Z,8.77
2019-05-09T01:32:47.720Z,7.63
2019-05-09T01:35:17.043Z,7.83
2019-05-09T01:37:46.412Z,8.13
2019-05-09T01:40:16.783Z,8.33
2019-05-09T01:42:46.108Z,7.73
2019-05-09T01:45:15.523Z,8.77
2019-05-09T01:47:44.826Z,8.43
2019-05-09T01:50:14.518Z,8.20
2019-05-09T01:52:43.968Z,7.97
2019-05-09T01:55:14.195Z,8.13
2019-05-09T01:57:47.728Z,8.10
2019-05-09T02:00:15.252Z,7.33
2019-05-09T02:02:44.617Z,7.60
2019-05-09T02:05:14.208Z,7.83
2019-05-09T02:07:43.905Z,7.90
2019-05-09T02:10:14.008Z,7.90
2019-05-09T02:12:43.461Z,8.00
2019-05-09T02:15:14.445Z,7.50
2019-05-09T02:17:58.298Z,7.70
2019-05-09T02:20:16.572Z,7.23
2019-05-09T02:22:45.874Z,7.63
2019-05-09T02:25:15.327Z,7.87
2019-05-09T02:27:44.785Z,8.03
2019-05-09T02:30:15.471Z,7.63
2019-05-09T02:32:45.416Z,7.33
2019-05-09T02:35:15.082Z,8.23
2019-05-09T02:37:44.453Z,7.57
2019-05-09T02:40:14.320Z,7.63
2019-05-09T02:42:43.619Z,8.27
2019-05-09T02:45:13.490Z,7.77
2019-05-09T02:47:42.810Z,8.50
2019-05-09T02:50:12.865Z,7.80
2019-05-09T02:52:42.232Z,7.77
2019-05-09T02:55:11.920Z,7.87
2019-05-09T02:57:41.293Z,7.53
2019-05-09T03:00:21.906Z,7.63
2019-05-09T03:02:59.211Z,7.33
2019-05-09T03:05:29.748Z,7.33
2019-05-09T03:07:58.531Z,8.20
2019-05-09T03:10:29.319Z,8.13
2019-05-09T03:12:59.606Z,7.23
2019-05-09T03:15:29.569Z,7.67
2019-05-09T03:17:59.920Z,7.43
2019-05-09T03:20:49.222Z,7.67
2019-05-09T03:23:19.485Z,7.77
2019-05-09T03:25:49.105Z,7.53
2019-05-09T03:28:23.159Z,7.20
2019-05-09T03:30:59.268Z,7.50
2019-05-09T03:33:30.816Z,8.20
2019-05-09T03:35:59.248Z,7.70
2019-05-09T03:38:28.678Z,8.13
2019-05-09T03:40:58.151Z,7.87
2019-05-09T03:43:27.666Z,7.53
2019-05-09T03:45:58.823Z,7.87
2019-05-09T03:48:32.256Z,8.10
2019-05-09T03:51:01.560Z,7.47
2019-05-09T03:53:30.828Z,8.00
2019-05-09T03:56:01.887Z,8.20
2019-05-09T03:58:31.249Z,8.97
2019-05-09T04:01:00.545Z,8.10
2019-05-09T04:03:29.875Z,8.00
2019-05-09T04:06:02.876Z,7.90
2019-05-09T04:08:30.233Z,7.93
2019-05-09T04:10:59.646Z,7.33
2019-05-09T04:13:33.518Z,7.27
2019-05-09T04:16:02.873Z,8.63
2019-05-09T04:18:32.279Z,8.93
2019-05-09T04:21:01.838Z,8.13
2019-05-09T04:23:31.336Z,8.47
2019-05-09T04:26:02.751Z,8.73
2019-05-09T04:28:32.115Z,8.37
2019-05-09T04:31:01.421Z,7.73
2019-05-09T04:33:30.736Z,8.00
2019-05-09T04:36:00.035Z,7.67
2019-05-09T04:38:29.475Z,8.57
2019-05-09T04:40:58.890Z,7.70
2019-05-09T04:43:35.607Z,8.50
2019-05-09T04:46:01.945Z,8.53
2019-05-09T04:48:37.357Z,8.27
2019-05-09T04:51:07.812Z,7.40
2019-05-09T04:53:39.773Z,7.63
2019-05-09T04:56:27.884Z,7.60
2019-05-09T04:58:58.352Z,7.60
2019-05-09T05:01:47.730Z,7.87
2019-05-09T05:04:20.106Z,7.33
2019-05-09T05:06:49.454Z,6.80
2019-05-09T05:09:20.896Z,7.80
2019-05-09T05:11:49.880Z,7.50
2019-05-09T05:14:22.179Z,6.87
2019-05-09T05:16:58.225Z,6.83
2019-05-09T05:19:30.954Z,12.00
2019-05-09T05:21:59.454Z,8.77
2019-05-09T05:24:30.382Z,8.47
2019-05-09T05:26:59.808Z,9.93
2019-05-09T05:29:29.100Z,8.53
2019-05-09T05:32:00.000Z,8.50
2019-05-09T05:34:37.796Z,8.73
2019-05-09T05:37:07.613Z,8.27
2019-05-09T05:39:37.633Z,8.63
2019-05-09T05:42:08.329Z,10.87
2019-05-09T05:44:38.676Z,10.43
2019-05-09T05:47:09.868Z,9.17
2019-05-09T05:49:39.346Z,8.17
2019-05-09T05:52:08.712Z,9.33
2019-05-09T05:54:38.071Z,11.73
2019-05-09T05:57:08.490Z,11.80
2019-05-09T05:59:40.783Z,12.27
2019-05-09T06:02:09.027Z,11.97
2019-05-09T06:04:38.442Z,13.23
2019-05-09T06:07:08.211Z,14.23
2019-05-09T06:09:38.090Z,14.90
2019-05-09T06:12:08.457Z,15.37
2019-05-09T06:14:38.066Z,14.57
2019-05-09T06:17:08.101Z,14.40
2019-05-09T06:19:38.177Z,14.70
2019-05-09T06:22:08.429Z,15.70
2019-05-09T06:24:38.837Z,13.80
2019-05-09T06:27:10.488Z,15.40
2019-05-09T06:29:40.025Z,19.90
2019-05-09T06:32:09.393Z,19.97
2019-05-09T06:34:41.997Z,17.90
2019-05-09T06:37:09.929Z,19.50
2019-05-09T06:39:39.297Z,20.57
2019-05-09T06:42:09.325Z,21.17
2019-05-09T06:44:47.977Z,18.43
2019-05-09T06:47:19.038Z,17.77
2019-05-09T06:49:50.218Z,19.07
2019-05-09T06:52:28.043Z,18.20
2019-05-09T06:54:58.240Z,18.83
2019-05-09T06:57:28.242Z,19.33
2019-05-09T06:59:58.095Z,17.67
2019-05-09T07:02:32.064Z,18.07
2019-05-09T07:05:03.031Z,17.57
2019-05-09T07:07:37.421Z,17.70
2019-05-09T07:10:08.299Z,18.47
2019-05-09T07:12:38.019Z,17.83
2019-05-09T07:15:08.765Z,17.57
2019-05-09T07:17:38.798Z,18.13
2019-05-09T07:20:08.827Z,18.30
2019-05-09T07:22:39.898Z,18.30
2019-05-09T07:25:11.522Z,17.90
2019-05-09T07:27:42.835Z,17.37
2019-05-09T07:30:24.297Z,16.53
2019-05-09T07:33:13.666Z,17.33
2019-05-09T07:35:42.998Z,18.43
2019-05-09T07:38:12.439Z,19.83
2019-05-09T07:40:41.672Z,18.17
2019-05-09T07:43:10.994Z,18.03
2019-05-09T07:45:42.979Z,18.70
2019-05-09T07:48:12.296Z,18.73
2019-05-09T07:50:41.621Z,18.93
2019-05-09T07:53:11.036Z,18.63
2019-05-09T07:55:40.457Z,17.10
2019-05-09T07:58:09.812Z,15.87
2019-05-09T08:00:39.328Z,15.93
2019-05-09T08:03:12.949Z,16.53
2019-05-09T08:05:39.873Z,16.00
2019-05-09T08:08:12.153Z,13.47
2019-05-09T08:10:41.547Z,14.10
2019-05-09T08:13:12.123Z,13.70
2019-05-09T08:15:41.796Z,13.80
2019-05-09T08:18:11.178Z,11.30
2019-05-09T08:20:44.931Z,12.07
2019-05-09T08:23:14.441Z,13.63
2019-05-09T08:25:43.815Z,13.57
2019-05-09T08:28:13.220Z,14.67
2019-05-09T08:30:43.158Z,14.67
2019-05-09T08:33:12.465Z,12.47
2019-05-09T08:35:41.865Z,12.13
2019-05-09T08:38:11.240Z,11.17
2019-05-09T08:40:40.670Z,9.03
2019-05-09T08:43:10.009Z,10.30
2019-05-09T08:45:39.308Z,11.50
2019-05-09T08:48:09.389Z,10.83
2019-05-09T08:50:40.823Z,11.77
2019-05-09T08:53:11.833Z,12.47
2019-05-09T08:55:41.134Z,13.43
2019-05-09T08:58:10.417Z,14.23
2019-05-09T09:00:39.932Z,14.43
2019-05-09T09:03:09.349Z,14.10
2019-05-09T09:05:43.249Z,13.73
2019-05-09T09:08:12.122Z,12.87
2019-05-09T09:10:41.497Z,12.07
2019-05-09T09:13:10.912Z,12.47
2019-05-09T09:16:05.702Z,11.90
2019-05-09T09:18:11.519Z,12.37
2019-05-09T09:20:40.912Z,11.40
2019-05-09T09:23:10.314Z,10.37
2019-05-09T09:25:39.747Z,10.40
2019-05-09T09:28:09.230Z,9.60
2019-05-09T09:30:39.052Z,9.30
2019-05-09T09:33:11.567Z,9.40
2019-05-09T09:35:39.601Z,9.53
2019-05-09T09:38:09.573Z,9.63
2019-05-09T09:40:38.921Z,8.97
2019-05-09T09:43:09.441Z,9.63
2019-05-09T09:45:39.092Z,8.40
2019-05-09T09:48:09.214Z,9.10
2019-05-09T09:50:38.748Z,9.10
2019-05-09T09:53:09.120Z,7.97
2019-05-09T09:55:38.864Z,7.63
2019-05-09T09:58:08.543Z,7.70
2019-05-09T10:00:44.765Z,7.33
2019-05-09T10:03:14.523Z,7.53
2019-05-09T10:05:43.932Z,8.17
2019-05-09T10:08:14.079Z,12.53
2019-05-09T10:10:43.644Z,10.17
2019-05-09T10:13:13.063Z,8.53
2019-05-09T10:15:44.098Z,8.57
2019-05-09T10:18:20.016Z,8.97
2019-05-09T10:20:51.066Z,8.77
2019-05-09T10:23:21.638Z,8.47
2019-05-09T10:25:52.881Z,8.60
2019-05-09T10:28:22.251Z,8.67
2019-05-09T10:30:51.616Z,8.30
2019-05-09T10:33:21.064Z,8.40
2019-05-09T10:35:50.519Z,8.60
2019-05-09T10:38:19.978Z,8.67
2019-05-09T10:40:53.022Z,8.83
2019-05-09T10:43:38.662Z,8.40
2019-05-09T10:46:19.398Z,8.90
2019-05-09T10:48:50.649Z,8.10
2019-05-09T10:51:20.137Z,8.50
2019-05-09T10:53:49.580Z,9.93
2019-05-09T10:56:19.189Z,11.43
2019-05-09T10:58:48.576Z,10.70
2019-05-09T11:01:18.691Z,10.80
2019-05-09T11:03:48.706Z,13.53
2019-05-09T11:06:18.663Z,15.10
2019-05-09T11:08:49.074Z,11.20
2019-05-09T11:11:18.680Z,16.00
2019-05-09T11:13:48.626Z,11.60
2019-05-09T11:16:18.493Z,10.23
2019-05-09T11:18:48.622Z,8.27
2019-05-09T11:21:19.190Z,7.40
2019-05-09T11:23:49.253Z,7.20
2019-05-09T11:26:18.794Z,7.00
2019-05-09T11:28:48.162Z,6.60
2019-05-09T11:31:18.668Z,7.13
2019-05-09T11:33:48.717Z,10.23
2019-05-09T11:36:21.154Z,7.77
2019-05-09T11:38:49.908Z,11.60
2019-05-09T11:41:19.773Z,7.40
2019-05-09T11:43:49.349Z,10.23
2019-05-09T11:46:18.854Z,9.63
2019-05-09T11:48:48.064Z,8.00
2019-05-09T11:51:22.010Z,9.13
2019-05-09T11:53:48.951Z,7.27
2019-05-09T11:56:18.454Z,7.70
2019-05-09T11:58:48.495Z,17.37
2019-05-09T12:01:19.046Z,14.87
2019-05-09T12:03:52.120Z,11.07
2019-05-09T12:06:20.571Z,9.73
2019-05-09T12:08:50.422Z,8.53
2019-05-09T12:11:19.839Z,8.83
2019-05-09T12:13:49.206Z,7.17
2019-05-09T12:16:18.943Z,8.60
2019-05-09T12:18:49.101Z,9.97
2019-05-09T12:21:19.505Z,10.67
2019-05-09T12:23:49.898Z,9.57
2019-05-09T12:26:19.437Z,7.77
2019-05-09T12:28:48.989Z,7.97
2019-05-09T12:31:18.579Z,10.20
2019-05-09T12:33:48.616Z,11.33
2019-05-09T12:36:19.405Z,9.37
2019-05-09T12:38:50.238Z,11.63
2019-05-09T12:41:20.622Z,8.23
2019-05-09T12:43:49.934Z,9.53
2019-05-09T12:46:19.353Z,15.07
2019-05-09T12:48:48.727Z,20.00
2019-05-09T12:51:18.567Z,11.23
2019-05-09T12:53:48.718Z,10.20
2019-05-09T12:56:18.890Z,12.77
2019-05-09T12:58:48.411Z,22.30
2019-05-09T13:01:18.723Z,10.20
2019-05-09T13:03:48.730Z,9.53
2019-05-09T13:06:20.240Z,12.90
2019-05-09T13:08:49.432Z,11.47
2019-05-09T13:11:20.149Z,15.60
2019-05-09T13:13:49.962Z,13.37
2019-05-09T13:16:21.000Z,12.33
2019-05-09T13:19:03.957Z,9.50
2019-05-09T13:21:33.500Z,8.90
2019-05-09T13:24:03.015Z,8.50
2019-05-09T13:26:32.722Z,10.27
2019-05-09T13:29:02.117Z,12.03
2019-05-09T13:31:34.572Z,8.93
2019-05-09T13:34:02.687Z,11.20
2019-05-09T13:36:32.065Z,10.17
2019-05-09T13:39:05.021Z,11.20
2019-05-09T13:41:32.403Z,11.87
2019-05-09T13:44:05.251Z,11.67
2019-05-09T13:46:32.732Z,13.07
2019-05-09T13:49:11.600Z,14.90
2019-05-09T13:51:33.247Z,14.03
2019-05-09T13:54:02.577Z,11.00
2019-05-09T13:56:32.080Z,12.40
2019-05-09T13:59:01.381Z,11.97
2019-05-09T14:01:30.791Z,10.30
2019-05-09T14:04:00.439Z,10.63
2019-05-09T14:06:29.908Z,9.97
2019-05-09T14:08:59.942Z,9.47
2019-05-09T14:11:29.493Z,11.00
2019-05-09T14:13:58.862Z,12.40
2019-05-09T14:16:28.825Z,11.17
2019-05-09T14:19:00.650Z,11.00
2019-05-09T14:21:29.993Z,11.53
2019-05-09T14:24:10.706Z,13.03
2019-05-09T14:26:30.712Z,13.57
2019-05-09T14:29:00.097Z,13.53
2019-05-09T14:31:32.548Z,17.33
2019-05-09T14:34:01.226Z,15.47
2019-05-09T14:36:30.591Z,18.10
2019-05-09T14:39:00.057Z,14.40
2019-05-09T14:41:29.429Z,19.23
2019-05-09T14:43:59.903Z,16.53
2019-05-09T14:46:29.584Z,16.90
2019-05-09T14:48:59.412Z,16.70
2019-05-09T14:51:29.793Z,18.20
2019-05-09T14:53:59.719Z,18.37
2019-05-09T14:56:29.137Z,17.13
2019-05-09T14:58:58.602Z,21.07
2019-05-09T15:01:28.982Z,20.63
2019-05-09T15:03:58.906Z,18.83
2019-05-09T15:06:28.498Z,18.03
2019-05-09T15:08:58.329Z,23.20
2019-05-09T15:11:28.437Z,24.47
2019-05-09T15:13:58.646Z,25.20
2019-05-09T15:16:28.450Z,20.77
2019-05-09T15:18:58.561Z,20.87
2019-05-09T15:21:28.165Z,19.23
2019-05-09T15:23:59.082Z,16.40
2019-05-09T15:26:29.213Z,18.70
2019-05-09T15:28:58.749Z,17.90
2019-05-09T15:31:28.832Z,16.13
2019-05-09T15:33:58.400Z,18.87
2019-05-09T15:36:27.768Z,20.17
2019-05-09T15:38:59.122Z,18.10
2019-05-09T15:41:28.399Z,19.53
2019-05-09T15:43:58.033Z,17.83
2019-05-09T15:46:29.159Z,19.70
2019-05-09T15:48:58.532Z,18.73
2019-05-09T15:51:28.074Z,18.80
2019-05-09T15:53:57.887Z,19.67
2019-05-09T15:56:28.823Z,18.53
2019-05-09T15:58:58.265Z,18.57
2019-05-09T16:01:27.974Z,20.73
2019-05-09T16:03:57.532Z,23.10
2019-05-09T16:06:32.581Z,21.83
2019-05-09T16:08:58.646Z,26.93
2019-05-09T16:11:28.673Z,26.90
2019-05-09T16:13:58.164Z,22.07
2019-05-09T16:16:28.611Z,21.07
2019-05-09T16:18:58.428Z,20.80
2019-05-09T16:21:28.030Z,20.47
2019-05-09T16:23:59.311Z,19.10
2019-05-09T16:26:29.151Z,19.13
2019-05-09T16:28:58.646Z,18.10
2019-05-09T16:31:28.254Z,17.47
2019-05-09T16:33:58.808Z,20.87
2019-05-09T16:36:28.385Z,20.57
2019-05-09T16:38:58.390Z,19.73
2019-05-09T16:41:28.165Z,20.80
2019-05-09T16:43:58.331Z,22.27
2019-05-09T16:46:28.610Z,22.40
2019-05-09T16:48:58.308Z,23.67
2019-05-09T16:51:28.582Z,25.47
2019-05-09T16:53:58.552Z,26.47
2019-05-09T16:56:28.855Z,26.67
2019-05-09T16:58:58.543Z,27.30
2019-05-09T17:01:28.488Z,25.43
2019-05-09T17:03:58.278Z,28.37
2019-05-09T17:06:27.653Z,23.40
2019-05-09T17:08:58.358Z,19.03
2019-05-09T17:11:28.109Z,18.70
2019-05-09T17:13:58.354Z,17.43
2019-05-09T17:16:28.433Z,19.00
2019-05-09T17:18:58.329Z,16.57
2019-05-09T17:21:29.440Z,16.17
2019-05-09T17:24:00.315Z,18.47
2019-05-09T17:26:29.841Z,18.33
2019-05-09T17:29:00.294Z,19.33
2019-05-09T17:31:29.900Z,18.10
2019-05-09T17:33:59.274Z,17.17
2019-05-09T17:36:28.749Z,17.77
2019-05-09T17:38:58.516Z,18.23
2019-05-09T17:41:31.962Z,18.10
2019-05-09T17:44:01.304Z,17.67
2019-05-09T17:46:30.671Z,17.87
2019-05-09T17:49:00.142Z,19.43
2019-05-09T17:51:33.933Z,20.37
2019-05-09T17:54:03.876Z,20.50
2019-05-09T17:56:34.754Z,20.30
2019-05-09T17:59:08.757Z,19.57
2019-05-09T18:01:38.260Z,19.67
2019-05-09T18:04:09.194Z,25.40
2019-05-09T18:06:38.808Z,23.33
2019-05-09T18:09:08.939Z,23.03
2019-05-09T18:11:38.463Z,24.40
2019-05-09T18:14:08.348Z,23.53
2019-05-09T18:16:39.036Z,23.40
2019-05-09T18:19:09.655Z,21.77
2019-05-09T18:21:50.231Z,21.53
2019-05-09T18:24:10.206Z,24.93
2019-05-09T18:26:39.755Z,23.27
2019-05-09T18:29:09.160Z,21.00
2019-05-09T18:31:52.548Z,21.57
2019-05-09T18:34:22.116Z,22.87
2019-05-09T18:36:51.563Z,23.40
2019-05-09T18:39:23.075Z,25.80
2019-05-09T18:41:52.783Z,25.53
2019-05-09T18:44:22.159Z,24.70
2019-05-09T18:46:51.669Z,24.07
2019-05-09T18:49:21.156Z,24.73
2019-05-09T18:52:02.659Z,24.60
2019-05-09T18:54:22.004Z,26.10
2019-05-09T18:56:57.318Z,25.97
2019-05-09T18:59:32.226Z,25.27
2019-05-09T19:02:05.998Z,23.40
2019-05-09T19:04:35.797Z,23.37
2019-05-09T19:07:21.370Z,23.50
2019-05-09T19:09:37.452Z,21.70
2019-05-09T19:12:07.312Z,21.90
2019-05-09T19:14:37.160Z,23.17
2019-05-09T19:17:10.029Z,22.27
2019-05-09T19:19:41.458Z,20.70
2019-05-09T19:22:22.101Z,20.07
2019-05-09T19:24:42.654Z,18.53
2019-05-09T19:27:12.149Z,18.93
2019-05-09T19:29:41.669Z,17.70
2019-05-09T19:32:11.104Z,17.57
2019-05-09T19:34:40.668Z,19.13
2019-05-09T19:37:10.971Z,18.13
2019-05-09T19:39:40.593Z,18.63
2019-05-09T19:42:10.309Z,18.37
2019-05-09T19:44:39.911Z,18.67
2019-05-09T19:47:09.724Z,18.00
2019-05-09T19:49:39.115Z,18.50
2019-05-09T19:52:08.625Z,18.80
2019-05-09T19:54:38.183Z,20.37
2019-05-09T19:57:08.436Z,18.33
2019-05-09T19:59:37.920Z,19.07
2019-05-09T20:02:07.706Z,19.90
2019-05-09T20:04:37.336Z,18.73
2019-05-09T20:07:07.203Z,19.77
2019-05-09T20:09:55.956Z,21.07
2019-05-09T20:12:33.561Z,19.67
2019-05-09T20:15:03.732Z,21.10
2019-05-09T20:17:33.542Z,20.00
2019-05-09T20:20:06.420Z,20.20
2019-05-09T20:22:36.072Z,20.73
2019-05-09T20:25:07.314Z,19.27
2019-05-09T20:27:36.822Z,19.53
2019-05-09T20:30:08.165Z,20.40
2019-05-09T20:32:38.078Z,20.00
2019-05-09T20:35:08.268Z,19.57
2019-05-09T20:37:38.639Z,16.60
2019-05-09T20:40:08.872Z,18.80
2019-05-09T20:42:39.058Z,17.73
2019-05-09T20:45:09.057Z,18.37
2019-05-09T20:47:38.911Z,16.27
2019-05-09T20:50:09.066Z,16.27
2019-05-09T20:52:38.718Z,17.27
2019-05-09T20:55:10.273Z,18.67
2019-05-09T20:57:40.221Z,20.27
2019-05-09T21:00:10.727Z,22.00
2019-05-09T21:02:40.684Z,21.53
2019-05-09T21:05:11.002Z,20.63
2019-05-09T21:07:40.784Z,21.97
2019-05-09T21:10:10.681Z,21.60
2019-05-09T21:12:40.474Z,23.80
2019-05-09T21:15:10.640Z,22.93
2019-05-09T21:17:40.282Z,23.07
2019-05-09T21:20:10.227Z,23.13
2019-05-09T21:22:40.413Z,21.77
2019-05-09T21:25:10.258Z,24.90
2019-05-09T21:27:39.867Z,23.87
2019-05-09T21:30:10.027Z,26.17
2019-05-09T21:32:39.498Z,25.43
2019-05-09T21:35:09.121Z,26.10
2019-05-09T21:37:38.544Z,26.33
2019-05-09T21:40:09.025Z,27.43
2019-05-09T21:42:38.491Z,25.97
2019-05-09T21:45:08.550Z,27.23
2019-05-09T21:47:37.993Z,23.80
2019-05-09T21:50:08.644Z,26.57
2019-05-09T21:52:38.021Z,27.93
2019-05-09T21:55:08.037Z,25.37
2019-05-09T21:57:37.415Z,25.23
2019-05-09T22:00:15.414Z,24.60
2019-05-09T22:02:45.027Z,29.27
2019-05-09T22:05:14.444Z,29.93
2019-05-09T22:07:43.864Z,29.07
2019-05-09T22:10:14.140Z,28.50
2019-05-09T22:12:43.681Z,31.97
2019-05-09T22:15:15.835Z,29.90
2019-05-09T22:17:45.342Z,32.13
2019-05-09T22:20:16.309Z,34.93
2019-05-09T22:22:46.104Z,34.77
2019-05-09T22:25:16.081Z,31.50
2019-05-09T22:27:45.934Z,34.63
2019-05-09T22:30:16.312Z,34.53
2019-05-09T22:32:45.679Z,31.73
2019-05-09T22:35:15.648Z,31.70
2019-05-09T22:37:45.152Z,29.67
2019-05-09T22:40:15.055Z,32.93
2019-05-09T22:42:46.229Z,32.00
2019-05-09T22:45:15.956Z,32.83
2019-05-09T22:47:45.321Z,31.13
2019-05-09T22:50:14.777Z,24.77
2019-05-09T22:52:44.375Z,28.37
2019-05-09T22:55:14.690Z,31.37
2019-05-09T22:57:44.150Z,32.80
2019-05-09T23:00:15.673Z,30.43
2019-05-09T23:02:45.070Z,26.77
2019-05-09T23:05:14.465Z,27.07
2019-05-09T23:07:43.877Z,26.17
2019-05-09T23:10:13.254Z,25.93
2019-05-09T23:12:42.719Z,24.23
2019-05-09T23:15:14.254Z,24.03
2019-05-09T23:17:45.436Z,24.63
2019-05-09T23:20:22.792Z,24.17
2019-05-09T23:22:52.165Z,24.47
2019-05-09T23:25:21.780Z,22.33
2019-05-09T23:27:51.214Z,22.63
2019-05-09T23:30:20.629Z,20.83
2019-05-09T23:32:50.006Z,21.43
2019-05-09T23:35:19.452Z,22.03
2019-05-09T23:37:48.811Z,23.57
2019-05-09T23:40:18.356Z,24.83
2019-05-09T23:42:47.803Z,22.33
2019-05-09T23:45:17.284Z,15.10
2019-05-09T23:47:46.603Z,14.80
2019-05-09T23:50:16.026Z,13.07
2019-05-09T23:52:45.408Z,14.30
2019-05-09T23:55:32.746Z,13.47
2019-05-09T23:58:20.298Z,9.20
